Flight Track Log - Related Links

Times and Time Zones

All times are in EDT time to prevent confusion due to time zone crossing. See the UAL6008 flight status page for this flight to view local times or setup timezone preferences in your user account.

Time Position Orientation Groundspeed Altitude Reporting Facility
EDT Latitude Longitude Course Direction KTS MPH feet Rate Location/Type
11:39PM 41.9833 -87.8833 253° West 154 177 2,000  Level Chicago TRACON
11:40PM 41.9833 -87.8167 90° East 201 231 4,100 2,150 Climbing Chicago TRACON
11:41PM 42.0333 -87.8500 334° Northwest 221 254 6,300 2,429 Climbing Chicago TRACON
11:42PM 42.0500 -87.9333 285° West 273 314 9,200 2,491 Climbing Chicago TRACON
11:43PM 41.8716 -88.3922 255° West  Level FlightAware Approximate
11:44PM 41.8442 -88.5145 253° West  Level FlightAware Approximate
11:44PM 42.0178 -88.0875 254° West 284 327 12,900  Level Chicago Center
11:45PM 41.9881 -88.1864 248° West 287 330 14,800 2,083 Climbing Chicago Center
11:46PM 41.9550 -88.2925 247° West 305 351 17,100 1,983 Climbing Chicago Center
11:47PM 41.9214 -88.4044 248° West 309 356 18,800 1,475 Climbing Chicago Center
11:48PM 41.8869 -88.5147 247° West 316 364 20,100 1,525 Climbing Chicago Center
11:49PM 41.8486 -88.6367 247° West 344 396 21,900 1,820 Climbing Chicago Center
11:50PM 41.8122 -88.7569 248° West 350 403 23,800 1,672 Climbing Chicago Center
11:51PM 41.7869 -88.8786 254° West 344 396 25,300 1,190 Climbing Chicago Center
11:52PM 41.7708 -89.0092 261° West 350 403 26,200 942 Climbing Chicago Center
11:53PM 41.7533 -89.1422 260° West 361 415 27,200 934 Climbing Chicago Center
11:54PM 41.7103 -89.2742 246° West 397 457 28,100 885 Climbing Chicago Center
11:55PM 41.6581 -89.4025 241° Southwest 395 455 29,000 1,033 Climbing Chicago Center
11:56PM 41.5956 -89.5517 241° Southwest 401 461 30,200 1,033 Climbing Chicago Center
11:57PM 41.5394 -89.6825 240° Southwest 406 467 31,100 893 Climbing Chicago Center
11:58PM 41.4822 -89.8178 241° Southwest 420 483 32,000 439 Climbing Chicago Center
11:59PM 41.4233 -89.9553 240° Southwest 430 495 32,000  Level Chicago Center
12:00AM 41.3625 -90.0986 241° Southwest 445 512 32,000  Level Chicago Center
12:01AM 41.3008 -90.2397 240° Southwest 445 512 32,000  Level Chicago Center
12:02AM 41.2394 -90.3808 240° Southwest 444 511 32,000  Level Chicago Center
12:03AM 41.1797 -90.5206 240° Southwest 442 509 32,000  Level Chicago Center
12:04AM 41.1197 -90.6583 240° Southwest 438 504 32,000  Level Chicago Center
12:05AM 41.0583 -90.7969 240° Southwest 437 503 32,000  Level Chicago Center
12:06AM 40.9842 -90.9642 240° Southwest 439 505 32,000  Level Chicago Center
12:07AM 40.9219 -91.1036 239° Southwest 441 507 32,000  Level Chicago Center
12:08AM 40.8603 -91.2442 240° Southwest 443 510 32,000  Level Chicago Center
12:09AM 40.7978 -91.3822 239° Southwest 444 511 32,000  Level Chicago Center
12:10AM 40.7358 -91.5200 239° Southwest 441 507 32,000  Level Chicago Center
12:11AM 40.6736 -91.6567 239° Southwest 439 505 32,000  Level Chicago Center
12:12AM 40.6111 -91.7942 239° Southwest 440 506 32,000  Level Chicago Center
12:13AM 40.5361 -91.9586 239° Southwest 441 507 32,000 -94 Level Kansas City Center
12:14AM 40.4717 -92.0956 238° Southwest 441 507 31,800 -836 Descending Kansas City Center
12:15AM 40.4092 -92.2328 239° Southwest 441 507 30,300 -1,525 Descending Kansas City Center
12:16AM 40.3433 -92.3750 239° Southwest 441 507 28,700 -1,475 Descending Kansas City Center
12:17AM 40.2822 -92.5036 238° Southwest 442 509 27,300 -1,279 Descending Kansas City Center
12:18AM 40.2197 -92.6375 239° Southwest 442 509 26,100 -639 Descending Kansas City Center
12:19AM 40.1472 -92.7942 239° Southwest 446 513 26,000 -49 Descending Kansas City Center
12:20AM 40.0825 -92.9283 238° Southwest 451 519 26,000  Level Kansas City Center
12:21AM 40.0133 -93.0772 239° Southwest 457 526 26,000 -496 Level Kansas City Center
12:22AM 39.9475 -93.2147 238° Southwest 456 525 25,000 -1,082 Descending Kansas City Center
12:23AM 39.8833 -93.3494 238° Southwest 445 512 23,800 -1,180 Descending Kansas City Center
12:24AM 39.8194 -93.4800 238° Southwest 437 503 22,600 -1,820 Descending Kansas City Center
12:25AM 39.7600 -93.6053 238° Southwest 419 482 20,100 -2,727 Descending Kansas City Center
12:26AM 39.7044 -93.7186 238° Southwest 378 435 17,100 -3,223 Descending Kansas City Center
12:27AM 39.6514 -93.8306 238° Southwest 365 420 13,600 -2,951 Descending Kansas City Center
12:28AM 39.5928 -93.9472 237° Southwest 342 394 11,100 -1,820 Descending Kansas City Center
12:29AM 39.5508 -94.0311 237° Southwest 295 339 9,900 -1,339 Descending Kansas City Center
12:30AM 39.5194 -94.1097 243° Southwest 256 295 8,400 -1,388 Descending Kansas City Center
12:31AM 39.4961 -94.1992 251° West 237 273 7,100 -1,033 Descending Kansas City Center
12:32AM 39.4772 -94.2761 252° West 236 272 6,300 -843 Descending Kansas City Center
12:33AM 39.4600 -94.3558 254° West 238 274 5,400 -1,041 Descending Kansas City Center
12:34AM 39.4408 -94.4486 255° West 238 274 4,200 -1,033 Descending Kansas City Center
12:35AM 39.4261 -94.5289 257° West 238 274 3,300 -595 Descending Kansas City Center
12:36AM 39.4144 -94.6044 259° West 224 258 3,000 -298 Descending Kansas City Center
12:37AM 39.3914 -94.6694 245° Southwest 178 205 2,700 -443 Descending Kansas City Center
12:38AM 39.3586 -94.6864 202° Southwest 135 155 2,100 -595 Descending Kansas City Center
12:39AM 39.3264 -94.6958 193° South 128 147 1,500 -545 Descending Kansas City Center
12:40AM 39.2931 -94.7058 193° South 125 144 1,000 -492 Descending Kansas City Center

Login

Don't have an account? Register now (free) for customized features, flight alerts, and more!